sensor_id;sensor_type;location;lat;lon;timestamp;P1;durP1;ratioP1;P2;durP2;ratioP2
19285;SDS011;9776;50.798;6.430;2022-07-03T00:01:54;2.47;;;2.38;;
19285;SDS011;9776;50.798;6.430;2022-07-03T00:04:21;2.70;;;2.60;;
19285;SDS011;9776;50.798;6.430;2022-07-03T00:06:48;2.65;;;2.55;;
19285;SDS011;9776;50.798;6.430;2022-07-03T00:09:15;3.00;;;2.90;;
19285;SDS011;9776;50.798;6.430;2022-07-03T00:11:42;2.78;;;2.67;;
19285;SDS011;9776;50.798;6.430;2022-07-03T00:14:10;2.47;;;2.28;;
19285;SDS011;9776;50.798;6.430;2022-07-03T00:16:36;2.55;;;2.35;;
19285;SDS011;9776;50.798;6.430;2022-07-03T00:19:03;2.45;;;2.35;;
19285;SDS011;9776;50.798;6.430;2022-07-03T00:21:31;2.45;;;2.35;;
19285;SDS011;9776;50.798;6.430;2022-07-03T00:24:02;2.20;;;2.10;;
19285;SDS011;9776;50.798;6.430;2022-07-03T00:26:32;2.15;;;2.05;;
19285;SDS011;9776;50.798;6.430;2022-07-03T00:29:00;1.83;;;1.73;;
19285;SDS011;9776;50.798;6.430;2022-07-03T00:31:30;1.98;;;1.88;;
19285;SDS011;9776;50.798;6.430;2022-07-03T00:33:58;1.98;;;1.88;;
19285;SDS011;9776;50.798;6.430;2022-07-03T00:36:26;1.88;;;1.77;;
19285;SDS011;9776;50.798;6.430;2022-07-03T00:38:56;1.98;;;1.88;;
19285;SDS011;9776;50.798;6.430;2022-07-03T00:41:26;1.95;;;1.83;;
19285;SDS011;9776;50.798;6.430;2022-07-03T00:43:53;1.75;;;1.65;;
19285;SDS011;9776;50.798;6.430;2022-07-03T00:46:21;1.63;;;1.55;;
19285;SDS011;9776;50.798;6.430;2022-07-03T00:48:50;1.75;;;1.65;;
19285;SDS011;9776;50.798;6.430;2022-07-03T00:51:21;1.95;;;1.85;;
19285;SDS011;9776;50.798;6.430;2022-07-03T00:53:50;1.75;;;1.65;;
19285;SDS011;9776;50.798;6.430;2022-07-03T00:56:20;1.80;;;1.70;;
19285;SDS011;9776;50.798;6.430;2022-07-03T00:58:52;1.52;;;1.45;;
19285;SDS011;9776;50.798;6.430;2022-07-03T01:01:21;1.65;;;1.55;;
19285;SDS011;9776;50.798;6.430;2022-07-03T01:03:56;1.50;;;1.48;;
19285;SDS011;9776;50.798;6.430;2022-07-03T01:06:38;1.67;;;1.58;;
19285;SDS011;9776;50.798;6.430;2022-07-03T01:09:10;1.38;;;1.23;;
19285;SDS011;9776;50.798;6.430;2022-07-03T01:11:37;1.65;;;1.55;;
19285;SDS011;9776;50.798;6.430;2022-07-03T01:14:14;1.63;;;1.52;;
19285;SDS011;9776;50.798;6.430;2022-07-03T01:16:50;1.50;;;1.40;;
19285;SDS011;9776;50.798;6.430;2022-07-03T01:19:26;1.40;;;1.30;;
19285;SDS011;9776;50.798;6.430;2022-07-03T01:22:02;1.40;;;1.30;;
19285;SDS011;9776;50.798;6.430;2022-07-03T01:24:55;1.65;;;1.23;;
19285;SDS011;9776;50.798;6.430;2022-07-03T01:27:33;1.30;;;1.20;;
19285;SDS011;9776;50.798;6.430;2022-07-03T01:30:03;1.52;;;1.20;;
19285;SDS011;9776;50.798;6.430;2022-07-03T01:32:32;1.42;;;1.40;;
19285;SDS011;9776;50.798;6.430;2022-07-03T01:35:04;1.50;;;1.40;;
19285;SDS011;9776;50.798;6.430;2022-07-03T01:37:34;1.50;;;1.40;;
19285;SDS011;9776;50.798;6.430;2022-07-03T01:40:02;1.70;;;1.60;;
19285;SDS011;9776;50.798;6.430;2022-07-03T01:42:34;1.50;;;1.40;;
19285;SDS011;9776;50.798;6.430;2022-07-03T01:45:05;1.40;;;1.30;;
19285;SDS011;9776;50.798;6.430;2022-07-03T01:47:36;1.33;;;1.33;;
19285;SDS011;9776;50.798;6.430;2022-07-03T01:50:07;1.42;;;1.33;;
19285;SDS011;9776;50.798;6.430;2022-07-03T01:52:36;1.48;;;1.38;;
19285;SDS011;9776;50.798;6.430;2022-07-03T01:55:06;1.20;;;1.20;;
19285;SDS011;9776;50.798;6.430;2022-07-03T01:57:36;1.50;;;1.40;;
19285;SDS011;9776;50.798;6.430;2022-07-03T02:00:08;1.23;;;1.23;;
19285;SDS011;9776;50.798;6.430;2022-07-03T02:02:36;1.35;;;1.23;;
19285;SDS011;9776;50.798;6.430;2022-07-03T02:05:08;1.40;;;1.30;;
19285;SDS011;9776;50.798;6.430;2022-07-03T02:07:44;1.40;;;1.40;;
19285;SDS011;9776;50.798;6.430;2022-07-03T02:10:21;1.40;;;1.35;;
19285;SDS011;9776;50.798;6.430;2022-07-03T02:12:57;1.30;;;1.30;;
19285;SDS011;9776;50.798;6.430;2022-07-03T02:15:28;1.60;;;1.50;;
19285;SDS011;9776;50.798;6.430;2022-07-03T02:17:57;1.23;;;1.17;;
19285;SDS011;9776;50.798;6.430;2022-07-03T02:20:26;1.20;;;1.20;;
19285;SDS011;9776;50.798;6.430;2022-07-03T02:23:02;1.42;;;1.40;;
19285;SDS011;9776;50.798;6.430;2022-07-03T02:25:32;1.55;;;1.45;;
19285;SDS011;9776;50.798;6.430;2022-07-03T02:28:03;2.42;;;1.60;;
19285;SDS011;9776;50.798;6.430;2022-07-03T02:30:33;1.58;;;1.48;;
19285;SDS011;9776;50.798;6.430;2022-07-03T02:33:02;1.48;;;1.38;;
19285;SDS011;9776;50.798;6.430;2022-07-03T02:35:31;1.60;;;1.50;;
19285;SDS011;9776;50.798;6.430;2022-07-03T02:37:59;1.63;;;1.52;;
19285;SDS011;9776;50.798;6.430;2022-07-03T02:40:32;1.60;;;1.50;;
19285;SDS011;9776;50.798;6.430;2022-07-03T02:43:10;1.60;;;1.50;;
19285;SDS011;9776;50.798;6.430;2022-07-03T02:45:44;1.63;;;1.48;;
19285;SDS011;9776;50.798;6.430;2022-07-03T02:48:21;1.60;;;1.50;;
19285;SDS011;9776;50.798;6.430;2022-07-03T02:50:55;1.98;;;1.65;;
19285;SDS011;9776;50.798;6.430;2022-07-03T02:53:33;1.50;;;1.40;;
19285;SDS011;9776;50.798;6.430;2022-07-03T02:56:05;1.45;;;1.45;;
19285;SDS011;9776;50.798;6.430;2022-07-03T03:01:30;1.40;;;1.30;;
19285;SDS011;9776;50.798;6.430;2022-07-03T03:04:09;1.58;;;1.50;;
19285;SDS011;9776;50.798;6.430;2022-07-03T03:06:47;1.80;;;1.70;;
19285;SDS011;9776;50.798;6.430;2022-07-03T03:09:20;1.70;;;1.50;;
19285;SDS011;9776;50.798;6.430;2022-07-03T03:11:52;1.70;;;1.60;;
19285;SDS011;9776;50.798;6.430;2022-07-03T03:14:26;2.67;;;1.52;;
19285;SDS011;9776;50.798;6.430;2022-07-03T03:17:02;1.92;;;1.83;;
19285;SDS011;9776;50.798;6.430;2022-07-03T03:19:31;1.75;;;1.65;;
19285;SDS011;9776;50.798;6.430;2022-07-03T03:22:03;1.80;;;1.70;;
19285;SDS011;9776;50.798;6.430;2022-07-03T03:24:38;1.95;;;1.85;;
19285;SDS011;9776;50.798;6.430;2022-07-03T03:27:04;1.98;;;1.88;;
19285;SDS011;9776;50.798;6.430;2022-07-03T03:29:33;1.88;;;1.77;;
19285;SDS011;9776;50.798;6.430;2022-07-03T03:32:00;1.98;;;1.88;;
19285;SDS011;9776;50.798;6.430;2022-07-03T03:34:29;1.85;;;1.75;;
19285;SDS011;9776;50.798;6.430;2022-07-03T03:36:57;1.90;;;1.80;;
19285;SDS011;9776;50.798;6.430;2022-07-03T03:39:25;2.38;;;2.17;;
19285;SDS011;9776;50.798;6.430;2022-07-03T03:41:52;2.08;;;1.92;;
19285;SDS011;9776;50.798;6.430;2022-07-03T03:44:19;2.35;;;2.20;;
19285;SDS011;9776;50.798;6.430;2022-07-03T03:46:47;2.05;;;1.95;;
19285;SDS011;9776;50.798;6.430;2022-07-03T03:49:14;2.40;;;2.08;;
19285;SDS011;9776;50.798;6.430;2022-07-03T03:51:41;2.60;;;2.40;;
19285;SDS011;9776;50.798;6.430;2022-07-03T03:54:07;2.40;;;2.28;;
19285;SDS011;9776;50.798;6.430;2022-07-03T03:56:34;2.35;;;2.25;;
19285;SDS011;9776;50.798;6.430;2022-07-03T03:59:01;2.58;;;2.47;;
19285;SDS011;9776;50.798;6.430;2022-07-03T04:01:28;2.53;;;2.42;;
19285;SDS011;9776;50.798;6.430;2022-07-03T04:03:56;2.22;;;2.13;;
19285;SDS011;9776;50.798;6.430;2022-07-03T04:06:24;2.35;;;2.25;;
19285;SDS011;9776;50.798;6.430;2022-07-03T04:08:51;2.33;;;2.20;;
19285;SDS011;9776;50.798;6.430;2022-07-03T04:11:18;2.60;;;2.50;;
19285;SDS011;9776;50.798;6.430;2022-07-03T04:13:44;2.50;;;2.40;;
19285;SDS011;9776;50.798;6.430;2022-07-03T04:16:11;2.88;;;2.67;;
19285;SDS011;9776;50.798;6.430;2022-07-03T04:18:38;2.30;;;2.20;;
19285;SDS011;9776;50.798;6.430;2022-07-03T04:21:07;2.33;;;2.22;;
19285;SDS011;9776;50.798;6.430;2022-07-03T04:23:33;2.90;;;2.70;;
19285;SDS011;9776;50.798;6.430;2022-07-03T04:26:03;2.22;;;2.13;;
19285;SDS011;9776;50.798;6.430;2022-07-03T04:28:31;3.05;;;2.85;;
19285;SDS011;9776;50.798;6.430;2022-07-03T04:30:58;2.65;;;2.55;;
19285;SDS011;9776;50.798;6.430;2022-07-03T04:33:24;2.55;;;2.42;;
19285;SDS011;9776;50.798;6.430;2022-07-03T04:35:51;2.47;;;2.28;;
19285;SDS011;9776;50.798;6.430;2022-07-03T04:38:19;2.42;;;2.20;;
19285;SDS011;9776;50.798;6.430;2022-07-03T04:40:46;2.53;;;2.33;;
19285;SDS011;9776;50.798;6.430;2022-07-03T04:43:12;2.03;;;1.92;;
19285;SDS011;9776;50.798;6.430;2022-07-03T04:45:42;1.83;;;1.73;;
19285;SDS011;9776;50.798;6.430;2022-07-03T04:48:08;1.77;;;1.67;;
19285;SDS011;9776;50.798;6.430;2022-07-03T04:50:35;1.65;;;1.52;;
19285;SDS011;9776;50.798;6.430;2022-07-03T04:53:02;1.50;;;1.40;;
19285;SDS011;9776;50.798;6.430;2022-07-03T04:55:30;3.58;;;1.20;;
19285;SDS011;9776;50.798;6.430;2022-07-03T04:57:57;1.38;;;1.27;;
19285;SDS011;9776;50.798;6.430;2022-07-03T05:00:23;1.30;;;1.27;;
19285;SDS011;9776;50.798;6.430;2022-07-03T05:02:50;1.50;;;1.42;;
19285;SDS011;9776;50.798;6.430;2022-07-03T05:05:17;1.20;;;1.20;;
19285;SDS011;9776;50.798;6.430;2022-07-03T05:07:44;1.15;;;1.15;;
19285;SDS011;9776;50.798;6.430;2022-07-03T05:10:11;1.30;;;1.20;;
19285;SDS011;9776;50.798;6.430;2022-07-03T05:12:39;1.20;;;1.10;;
19285;SDS011;9776;50.798;6.430;2022-07-03T05:15:06;1.20;;;1.20;;
19285;SDS011;9776;50.798;6.430;2022-07-03T05:17:33;1.20;;;1.20;;
19285;SDS011;9776;50.798;6.430;2022-07-03T05:20:00;1.40;;;1.30;;
19285;SDS011;9776;50.798;6.430;2022-07-03T05:22:41;1.48;;;1.38;;
19285;SDS011;9776;50.798;6.430;2022-07-03T05:25:07;2.00;;;1.30;;
19285;SDS011;9776;50.798;6.430;2022-07-03T05:27:35;1.45;;;1.45;;
19285;SDS011;9776;50.798;6.430;2022-07-03T05:30:05;1.58;;;1.48;;
19285;SDS011;9776;50.798;6.430;2022-07-03T05:32:33;2.45;;;2.00;;
19285;SDS011;9776;50.798;6.430;2022-07-03T05:35:00;2.20;;;2.10;;
19285;SDS011;9776;50.798;6.430;2022-07-03T05:37:26;2.20;;;2.10;;
19285;SDS011;9776;50.798;6.430;2022-07-03T05:39:53;2.35;;;2.25;;
19285;SDS011;9776;50.798;6.430;2022-07-03T05:42:20;2.10;;;2.00;;
19285;SDS011;9776;50.798;6.430;2022-07-03T05:44:46;2.22;;;2.13;;
19285;SDS011;9776;50.798;6.430;2022-07-03T05:47:15;2.20;;;2.10;;
19285;SDS011;9776;50.798;6.430;2022-07-03T05:49:41;2.05;;;1.95;;
19285;SDS011;9776;50.798;6.430;2022-07-03T05:52:08;1.98;;;1.88;;
19285;SDS011;9776;50.798;6.430;2022-07-03T05:54:35;1.70;;;1.60;;
19285;SDS011;9776;50.798;6.430;2022-07-03T05:57:02;1.63;;;1.52;;
19285;SDS011;9776;50.798;6.430;2022-07-03T05:59:29;1.50;;;1.40;;
19285;SDS011;9776;50.798;6.430;2022-07-03T06:01:56;1.50;;;1.40;;
19285;SDS011;9776;50.798;6.430;2022-07-03T06:04:24;1.55;;;1.45;;
19285;SDS011;9776;50.798;6.430;2022-07-03T06:06:50;1.60;;;1.50;;
19285;SDS011;9776;50.798;6.430;2022-07-03T06:09:17;1.33;;;1.23;;
19285;SDS011;9776;50.798;6.430;2022-07-03T06:11:44;1.58;;;1.48;;
19285;SDS011;9776;50.798;6.430;2022-07-03T06:14:12;1.42;;;1.33;;
19285;SDS011;9776;50.798;6.430;2022-07-03T06:16:39;1.60;;;1.50;;
19285;SDS011;9776;50.798;6.430;2022-07-03T06:19:06;1.40;;;1.30;;
19285;SDS011;9776;50.798;6.430;2022-07-03T06:21:34;1.58;;;1.25;;
19285;SDS011;9776;50.798;6.430;2022-07-03T06:24:01;1.25;;;1.23;;
19285;SDS011;9776;50.798;6.430;2022-07-03T06:26:28;1.30;;;1.20;;
19285;SDS011;9776;50.798;6.430;2022-07-03T06:28:55;1.48;;;1.38;;
19285;SDS011;9776;50.798;6.430;2022-07-03T06:31:22;1.20;;;1.20;;
19285;SDS011;9776;50.798;6.430;2022-07-03T06:33:48;1.23;;;1.20;;
19285;SDS011;9776;50.798;6.430;2022-07-03T06:36:15;1.77;;;1.30;;
19285;SDS011;9776;50.798;6.430;2022-07-03T06:38:43;1.20;;;1.10;;
19285;SDS011;9776;50.798;6.430;2022-07-03T06:41:12;1.55;;;1.27;;
19285;SDS011;9776;50.798;6.430;2022-07-03T06:43:39;1.45;;;1.30;;
19285;SDS011;9776;50.798;6.430;2022-07-03T06:46:06;1.10;;;1.05;;
19285;SDS011;9776;50.798;6.430;2022-07-03T06:48:33;1.73;;;1.10;;
19285;SDS011;9776;50.798;6.430;2022-07-03T06:50:59;1.38;;;1.30;;
19285;SDS011;9776;50.798;6.430;2022-07-03T06:53:26;2.38;;;1.30;;
19285;SDS011;9776;50.798;6.430;2022-07-03T06:55:54;1.10;;;1.10;;
19285;SDS011;9776;50.798;6.430;2022-07-03T06:58:21;1.20;;;1.10;;
19285;SDS011;9776;50.798;6.430;2022-07-03T07:00:48;1.25;;;1.15;;
19285;SDS011;9776;50.798;6.430;2022-07-03T07:03:14;1.23;;;1.05;;
19285;SDS011;9776;50.798;6.430;2022-07-03T07:05:41;1.90;;;1.40;;
19285;SDS011;9776;50.798;6.430;2022-07-03T07:08:08;1.33;;;1.30;;
19285;SDS011;9776;50.798;6.430;2022-07-03T07:10:35;1.40;;;1.30;;
19285;SDS011;9776;50.798;6.430;2022-07-03T07:13:03;1.65;;;1.55;;
19285;SDS011;9776;50.798;6.430;2022-07-03T07:15:29;1.45;;;1.35;;
19285;SDS011;9776;50.798;6.430;2022-07-03T07:17:56;1.42;;;1.33;;
19285;SDS011;9776;50.798;6.430;2022-07-03T07:20:23;1.83;;;1.10;;
19285;SDS011;9776;50.798;6.430;2022-07-03T07:22:50;1.67;;;1.40;;
19285;SDS011;9776;50.798;6.430;2022-07-03T07:25:16;1.30;;;1.20;;
19285;SDS011;9776;50.798;6.430;2022-07-03T07:27:43;2.80;;;1.13;;
19285;SDS011;9776;50.798;6.430;2022-07-03T07:30:12;1.10;;;1.00;;
19285;SDS011;9776;50.798;6.430;2022-07-03T07:32:38;1.25;;;1.10;;
19285;SDS011;9776;50.798;6.430;2022-07-03T07:35:06;1.40;;;1.30;;
19285;SDS011;9776;50.798;6.430;2022-07-03T07:37:33;1.52;;;1.00;;
19285;SDS011;9776;50.798;6.430;2022-07-03T07:40:00;1.38;;;1.10;;
19285;SDS011;9776;50.798;6.430;2022-07-03T07:42:27;0.90;;;0.90;;
19285;SDS011;9776;50.798;6.430;2022-07-03T07:44:54;1.25;;;1.10;;
19285;SDS011;9776;50.798;6.430;2022-07-03T07:47:22;1.02;;;1.00;;
19285;SDS011;9776;50.798;6.430;2022-07-03T07:49:49;1.20;;;1.10;;
19285;SDS011;9776;50.798;6.430;2022-07-03T07:52:15;1.10;;;1.00;;
19285;SDS011;9776;50.798;6.430;2022-07-03T07:54:42;0.90;;;0.90;;
19285;SDS011;9776;50.798;6.430;2022-07-03T07:57:09;0.85;;;0.85;;
19285;SDS011;9776;50.798;6.430;2022-07-03T07:59:36;1.02;;;0.93;;
19285;SDS011;9776;50.798;6.430;2022-07-03T08:02:03;0.98;;;0.90;;
19285;SDS011;9776;50.798;6.430;2022-07-03T08:04:48;1.00;;;1.00;;
19285;SDS011;9776;50.798;6.430;2022-07-03T08:07:32;0.95;;;0.93;;
19285;SDS011;9776;50.798;6.430;2022-07-03T08:09:59;1.20;;;1.10;;
19285;SDS011;9776;50.798;6.430;2022-07-03T08:12:25;3.15;;;1.10;;
19285;SDS011;9776;50.798;6.430;2022-07-03T08:14:52;1.27;;;1.17;;
19285;SDS011;9776;50.798;6.430;2022-07-03T08:17:19;0.93;;;0.93;;
19285;SDS011;9776;50.798;6.430;2022-07-03T08:19:46;1.27;;;1.17;;
19285;SDS011;9776;50.798;6.430;2022-07-03T08:22:14;1.40;;;1.30;;
19285;SDS011;9776;50.798;6.430;2022-07-03T08:24:41;1.48;;;1.38;;
19285;SDS011;9776;50.798;6.430;2022-07-03T08:27:08;1.48;;;1.38;;
19285;SDS011;9776;50.798;6.430;2022-07-03T08:29:34;1.48;;;1.38;;
19285;SDS011;9776;50.798;6.430;2022-07-03T08:32:01;1.20;;;1.20;;
19285;SDS011;9776;50.798;6.430;2022-07-03T08:34:28;2.58;;;1.23;;
19285;SDS011;9776;50.798;6.430;2022-07-03T08:36:55;1.30;;;1.00;;
19285;SDS011;9776;50.798;6.430;2022-07-03T08:39:23;1.02;;;1.00;;
19285;SDS011;9776;50.798;6.430;2022-07-03T08:41:50;1.17;;;1.10;;
19285;SDS011;9776;50.798;6.430;2022-07-03T08:44:18;0.95;;;0.93;;
19285;SDS011;9776;50.798;6.430;2022-07-03T08:46:46;1.42;;;1.10;;
19285;SDS011;9776;50.798;6.430;2022-07-03T08:49:17;0.85;;;0.85;;
19285;SDS011;9776;50.798;6.430;2022-07-03T08:51:45;1.05;;;0.95;;
19285;SDS011;9776;50.798;6.430;2022-07-03T08:54:12;1.15;;;1.10;;
19285;SDS011;9776;50.798;6.430;2022-07-03T08:56:40;1.48;;;1.00;;
19285;SDS011;9776;50.798;6.430;2022-07-03T08:59:08;2.05;;;1.02;;
19285;SDS011;9776;50.798;6.430;2022-07-03T09:01:35;0.90;;;0.80;;
19285;SDS011;9776;50.798;6.430;2022-07-03T09:04:08;1.05;;;0.90;;
19285;SDS011;9776;50.798;6.430;2022-07-03T09:06:36;1.05;;;0.90;;
19285;SDS011;9776;50.798;6.430;2022-07-03T09:09:06;0.80;;;0.80;;
19285;SDS011;9776;50.798;6.430;2022-07-03T09:11:33;0.88;;;0.70;;
19285;SDS011;9776;50.798;6.430;2022-07-03T09:14:01;0.70;;;0.70;;
19285;SDS011;9776;50.798;6.430;2022-07-03T09:16:31;0.63;;;0.63;;
19285;SDS011;9776;50.798;6.430;2022-07-03T09:19:00;1.15;;;0.85;;
19285;SDS011;9776;50.798;6.430;2022-07-03T09:21:34;0.80;;;0.80;;
19285;SDS011;9776;50.798;6.430;2022-07-03T09:24:03;1.08;;;0.80;;
19285;SDS011;9776;50.798;6.430;2022-07-03T09:26:31;0.60;;;0.60;;
19285;SDS011;9776;50.798;6.430;2022-07-03T09:28:58;0.70;;;0.70;;
19285;SDS011;9776;50.798;6.430;2022-07-03T09:31:27;0.80;;;0.60;;
19285;SDS011;9776;50.798;6.430;2022-07-03T09:33:56;0.60;;;0.60;;
19285;SDS011;9776;50.798;6.430;2022-07-03T09:36:37;0.80;;;0.70;;
19285;SDS011;9776;50.798;6.430;2022-07-03T09:39:15;0.50;;;0.50;;
19285;SDS011;9776;50.798;6.430;2022-07-03T09:41:53;0.80;;;0.80;;
19285;SDS011;9776;50.798;6.430;2022-07-03T09:44:30;0.90;;;0.70;;
19285;SDS011;9776;50.798;6.430;2022-07-03T09:47:07;1.05;;;0.70;;
19285;SDS011;9776;50.798;6.430;2022-07-03T09:49:48;1.52;;;0.70;;
19285;SDS011;9776;50.798;6.430;2022-07-03T09:52:30;1.10;;;0.80;;
19285;SDS011;9776;50.798;6.430;2022-07-03T09:54:59;0.52;;;0.52;;
19285;SDS011;9776;50.798;6.430;2022-07-03T09:57:28;0.68;;;0.60;;
19285;SDS011;9776;50.798;6.430;2022-07-03T10:00:08;0.70;;;0.70;;
19285;SDS011;9776;50.798;6.430;2022-07-03T10:02:52;1.83;;;0.60;;
19285;SDS011;9776;50.798;6.430;2022-07-03T10:05:20;0.52;;;0.52;;
19285;SDS011;9776;50.798;6.430;2022-07-03T10:07:51;2.60;;;0.80;;
19285;SDS011;9776;50.798;6.430;2022-07-03T10:10:19;1.23;;;0.60;;
19285;SDS011;9776;50.798;6.430;2022-07-03T10:12:48;0.60;;;0.50;;
19285;SDS011;9776;50.798;6.430;2022-07-03T10:15:16;0.90;;;0.75;;
19285;SDS011;9776;50.798;6.430;2022-07-03T10:17:45;0.55;;;0.52;;
19285;SDS011;9776;50.798;6.430;2022-07-03T10:20:18;0.50;;;0.50;;
19285;SDS011;9776;50.798;6.430;2022-07-03T10:22:50;0.50;;;0.50;;
19285;SDS011;9776;50.798;6.430;2022-07-03T10:25:18;1.67;;;0.55;;
19285;SDS011;9776;50.798;6.430;2022-07-03T10:27:45;0.55;;;0.50;;
19285;SDS011;9776;50.798;6.430;2022-07-03T10:30:13;0.57;;;0.57;;
19285;SDS011;9776;50.798;6.430;2022-07-03T10:32:42;0.50;;;0.50;;
19285;SDS011;9776;50.798;6.430;2022-07-03T10:35:10;0.47;;;0.43;;
19285;SDS011;9776;50.798;6.430;2022-07-03T10:37:43;1.13;;;0.60;;
19285;SDS011;9776;50.798;6.430;2022-07-03T10:40:21;1.13;;;0.50;;
19285;SDS011;9776;50.798;6.430;2022-07-03T10:43:13;0.60;;;0.60;;
19285;SDS011;9776;50.798;6.430;2022-07-03T10:46:10;0.50;;;0.50;;
19285;SDS011;9776;50.798;6.430;2022-07-03T10:48:51;0.60;;;0.55;;
19285;SDS011;9776;50.798;6.430;2022-07-03T10:51:22;0.57;;;0.57;;
19285;SDS011;9776;50.798;6.430;2022-07-03T10:53:51;0.60;;;0.60;;
19285;SDS011;9776;50.798;6.430;2022-07-03T11:02:34;0.80;;;0.68;;
19285;SDS011;9776;50.798;6.430;2022-07-03T11:05:03;0.77;;;0.70;;
19285;SDS011;9776;50.798;6.430;2022-07-03T11:07:44;0.73;;;0.60;;
19285;SDS011;9776;50.798;6.430;2022-07-03T11:10:32;0.60;;;0.60;;
19285;SDS011;9776;50.798;6.430;2022-07-03T11:13:02;0.63;;;0.60;;
19285;SDS011;9776;50.798;6.430;2022-07-03T11:15:31;0.60;;;0.60;;
19285;SDS011;9776;50.798;6.430;2022-07-03T11:18:18;1.70;;;0.60;;
19285;SDS011;9776;50.798;6.430;2022-07-03T11:20:58;0.73;;;0.60;;
19285;SDS011;9776;50.798;6.430;2022-07-03T11:29:54;0.50;;;0.50;;
19285;SDS011;9776;50.798;6.430;2022-07-03T11:38:25;0.50;;;0.50;;
19285;SDS011;9776;50.798;6.430;2022-07-03T11:40:54;0.43;;;0.43;;
19285;SDS011;9776;50.798;6.430;2022-07-03T11:43:24;0.60;;;0.60;;
19285;SDS011;9776;50.798;6.430;2022-07-03T11:45:51;0.50;;;0.50;;
19285;SDS011;9776;50.798;6.430;2022-07-03T11:48:18;0.57;;;0.57;;
19285;SDS011;9776;50.798;6.430;2022-07-03T11:50:47;0.70;;;0.70;;
19285;SDS011;9776;50.798;6.430;2022-07-03T11:53:15;1.20;;;0.63;;
19285;SDS011;9776;50.798;6.430;2022-07-03T11:55:46;0.60;;;0.60;;
19285;SDS011;9776;50.798;6.430;2022-07-03T11:58:13;0.60;;;0.60;;
19285;SDS011;9776;50.798;6.430;2022-07-03T12:00:42;0.90;;;0.90;;
19285;SDS011;9776;50.798;6.430;2022-07-03T12:03:09;0.90;;;0.90;;
19285;SDS011;9776;50.798;6.430;2022-07-03T12:05:48;0.70;;;0.70;;
19285;SDS011;9776;50.798;6.430;2022-07-03T12:08:21;0.57;;;0.57;;
19285;SDS011;9776;50.798;6.430;2022-07-03T12:10:56;0.82;;;0.57;;
19285;SDS011;9776;50.798;6.430;2022-07-03T12:13:24;1.55;;;0.50;;
19285;SDS011;9776;50.798;6.430;2022-07-03T12:15:53;1.13;;;0.60;;
19285;SDS011;9776;50.798;6.430;2022-07-03T12:18:20;0.50;;;0.45;;
19285;SDS011;9776;50.798;6.430;2022-07-03T12:20:47;0.73;;;0.50;;
19285;SDS011;9776;50.798;6.430;2022-07-03T12:23:14;0.40;;;0.40;;
19285;SDS011;9776;50.798;6.430;2022-07-03T12:25:41;0.47;;;0.43;;
19285;SDS011;9776;50.798;6.430;2022-07-03T12:28:08;0.32;;;0.32;;
19285;SDS011;9776;50.798;6.430;2022-07-03T12:30:36;0.50;;;0.50;;
19285;SDS011;9776;50.798;6.430;2022-07-03T12:33:05;0.57;;;0.57;;
19285;SDS011;9776;50.798;6.430;2022-07-03T12:35:33;0.70;;;0.60;;
19285;SDS011;9776;50.798;6.430;2022-07-03T12:38:00;0.73;;;0.50;;
19285;SDS011;9776;50.798;6.430;2022-07-03T12:40:27;0.52;;;0.52;;
19285;SDS011;9776;50.798;6.430;2022-07-03T12:42:54;0.63;;;0.63;;
19285;SDS011;9776;50.798;6.430;2022-07-03T12:45:23;0.63;;;0.63;;
19285;SDS011;9776;50.798;6.430;2022-07-03T12:47:58;0.70;;;0.60;;
19285;SDS011;9776;50.798;6.430;2022-07-03T12:50:28;0.68;;;0.63;;
19285;SDS011;9776;50.798;6.430;2022-07-03T12:53:10;1.33;;;1.23;;
19285;SDS011;9776;50.798;6.430;2022-07-03T12:55:37;2.22;;;0.70;;
19285;SDS011;9776;50.798;6.430;2022-07-03T12:58:11;0.65;;;0.65;;
19285;SDS011;9776;50.798;6.430;2022-07-03T13:00:56;0.70;;;0.60;;
19285;SDS011;9776;50.798;6.430;2022-07-03T13:03:26;0.60;;;0.60;;
19285;SDS011;9776;50.798;6.430;2022-07-03T13:05:56;0.70;;;0.70;;
19285;SDS011;9776;50.798;6.430;2022-07-03T13:08:22;0.80;;;0.80;;
19285;SDS011;9776;50.798;6.430;2022-07-03T13:10:56;0.93;;;0.70;;
19285;SDS011;9776;50.798;6.430;2022-07-03T13:13:23;0.60;;;0.60;;
19285;SDS011;9776;50.798;6.430;2022-07-03T13:15:50;0.93;;;0.70;;
19285;SDS011;9776;50.798;6.430;2022-07-03T13:18:17;0.70;;;0.70;;
19285;SDS011;9776;50.798;6.430;2022-07-03T13:20:44;1.80;;;0.70;;
19285;SDS011;9776;50.798;6.430;2022-07-03T13:23:12;0.80;;;0.80;;
19285;SDS011;9776;50.798;6.430;2022-07-03T13:25:39;0.90;;;0.90;;
19285;SDS011;9776;50.798;6.430;2022-07-03T13:28:08;0.80;;;0.80;;
19285;SDS011;9776;50.798;6.430;2022-07-03T13:30:36;1.27;;;1.08;;
19285;SDS011;9776;50.798;6.430;2022-07-03T13:33:04;0.80;;;0.80;;
19285;SDS011;9776;50.798;6.430;2022-07-03T13:35:31;0.90;;;0.90;;
19285;SDS011;9776;50.798;6.430;2022-07-03T13:37:58;0.80;;;0.80;;
19285;SDS011;9776;50.798;6.430;2022-07-03T13:40:27;0.98;;;0.98;;
19285;SDS011;9776;50.798;6.430;2022-07-03T13:42:54;1.20;;;1.00;;
19285;SDS011;9776;50.798;6.430;2022-07-03T13:45:21;0.88;;;0.88;;
19285;SDS011;9776;50.798;6.430;2022-07-03T13:47:48;1.10;;;0.80;;
19285;SDS011;9776;50.798;6.430;2022-07-03T13:50:15;0.73;;;0.73;;
19285;SDS011;9776;50.798;6.430;2022-07-03T13:52:43;0.93;;;0.82;;
19285;SDS011;9776;50.798;6.430;2022-07-03T13:55:10;0.70;;;0.70;;
19285;SDS011;9776;50.798;6.430;2022-07-03T13:57:39;1.05;;;0.80;;
19285;SDS011;9776;50.798;6.430;2022-07-03T14:00:06;0.70;;;0.70;;
19285;SDS011;9776;50.798;6.430;2022-07-03T14:02:35;0.73;;;0.73;;
19285;SDS011;9776;50.798;6.430;2022-07-03T14:05:02;0.85;;;0.82;;
19285;SDS011;9776;50.798;6.430;2022-07-03T14:07:28;0.95;;;0.95;;
19285;SDS011;9776;50.798;6.430;2022-07-03T14:09:55;0.90;;;0.90;;
19285;SDS011;9776;50.798;6.430;2022-07-03T14:12:22;1.48;;;0.90;;
19285;SDS011;9776;50.798;6.430;2022-07-03T14:14:50;1.00;;;0.90;;
19285;SDS011;9776;50.798;6.430;2022-07-03T14:17:17;0.90;;;0.90;;
19285;SDS011;9776;50.798;6.430;2022-07-03T14:19:44;1.25;;;1.15;;
19285;SDS011;9776;50.798;6.430;2022-07-03T14:22:11;0.90;;;0.90;;
19285;SDS011;9776;50.798;6.430;2022-07-03T14:24:38;0.88;;;0.85;;
19285;SDS011;9776;50.798;6.430;2022-07-03T14:27:05;1.10;;;1.08;;
19285;SDS011;9776;50.798;6.430;2022-07-03T14:29:50;3.75;;;1.10;;
19285;SDS011;9776;50.798;6.430;2022-07-03T14:32:37;1.05;;;1.05;;
19285;SDS011;9776;50.798;6.430;2022-07-03T14:35:04;1.08;;;0.90;;
19285;SDS011;9776;50.798;6.430;2022-07-03T14:37:32;1.08;;;1.08;;
19285;SDS011;9776;50.798;6.430;2022-07-03T14:39:59;1.30;;;1.20;;
19285;SDS011;9776;50.798;6.430;2022-07-03T14:42:26;1.27;;;1.08;;
19285;SDS011;9776;50.798;6.430;2022-07-03T14:44:54;1.20;;;1.10;;
19285;SDS011;9776;50.798;6.430;2022-07-03T14:47:21;0.98;;;0.98;;
19285;SDS011;9776;50.798;6.430;2022-07-03T14:49:48;1.38;;;1.00;;
19285;SDS011;9776;50.798;6.430;2022-07-03T14:52:14;1.10;;;1.00;;
19285;SDS011;9776;50.798;6.430;2022-07-03T14:54:41;1.60;;;1.10;;
19285;SDS011;9776;50.798;6.430;2022-07-03T14:57:18;1.10;;;1.00;;
19285;SDS011;9776;50.798;6.430;2022-07-03T14:59:50;1.23;;;1.00;;
19285;SDS011;9776;50.798;6.430;2022-07-03T15:02:33;1.10;;;1.02;;
19285;SDS011;9776;50.798;6.430;2022-07-03T15:05:13;1.15;;;1.05;;
19285;SDS011;9776;50.798;6.430;2022-07-03T15:07:43;0.90;;;0.90;;
19285;SDS011;9776;50.798;6.430;2022-07-03T15:10:16;0.80;;;0.80;;
19285;SDS011;9776;50.798;6.430;2022-07-03T15:12:45;0.90;;;0.90;;
19285;SDS011;9776;50.798;6.430;2022-07-03T15:15:18;0.80;;;0.80;;
19285;SDS011;9776;50.798;6.430;2022-07-03T15:17:49;0.85;;;0.85;;
19285;SDS011;9776;50.798;6.430;2022-07-03T15:20:17;1.00;;;0.90;;
19285;SDS011;9776;50.798;6.430;2022-07-03T15:22:46;0.80;;;0.80;;
19285;SDS011;9776;50.798;6.430;2022-07-03T15:25:16;1.13;;;1.10;;
19285;SDS011;9776;50.798;6.430;2022-07-03T15:27:45;1.10;;;1.00;;
19285;SDS011;9776;50.798;6.430;2022-07-03T15:30:15;0.95;;;0.95;;
19285;SDS011;9776;50.798;6.430;2022-07-03T15:32:42;0.80;;;0.80;;
19285;SDS011;9776;50.798;6.430;2022-07-03T15:35:14;1.42;;;1.05;;
19285;SDS011;9776;50.798;6.430;2022-07-03T15:37:44;2.97;;;0.90;;